createdAt,value
2023-05-09T00:00:20.018Z,98462.97
2023-05-09T00:03:05.489Z,98711.25
2023-05-09T00:05:51.285Z,98113.38
2023-05-09T00:08:36.615Z,98566.22
2023-05-09T00:11:22.418Z,98525.28
2023-05-09T00:14:08.236Z,98702.41
2023-05-09T00:16:53.770Z,98574.31
2023-05-09T00:19:38.877Z,98509.97
2023-05-09T00:22:24.325Z,98654.72
2023-05-09T00:25:11.276Z,98456.75
2023-05-09T00:27:56.716Z,98649.44
2023-05-09T00:30:42.067Z,98649.69
2023-05-09T00:33:27.258Z,98641.69
2023-05-09T00:36:12.555Z,98556.72
2023-05-09T00:38:57.762Z,98694.50
2023-05-09T00:41:43.054Z,98582.41
2023-05-09T00:44:28.373Z,98591.19
2023-05-09T00:47:13.987Z,98503.34
2023-05-09T00:49:59.452Z,98602.78
2023-05-09T00:52:45.391Z,98443.34
2023-05-09T00:55:30.752Z,98458.25
2023-05-09T00:58:16.798Z,98686.28
2023-05-09T01:01:02.388Z,98648.53
2023-05-09T01:03:48.148Z,98569.91
2023-05-09T01:06:41.438Z,98148.41
2023-05-09T01:10:05.257Z,98669.75
2023-05-09T01:13:09.323Z,98660.91
2023-05-09T01:16:44.129Z,98664.25
2023-05-09T01:19:50.744Z,98663.59
2023-05-09T01:22:39.707Z,98675.31
2023-05-09T01:26:04.396Z,98665.84
2023-05-09T01:29:00.860Z,98664.19
2023-05-09T01:31:48.227Z,98394.06
2023-05-09T01:34:35.148Z,98446.88
2023-05-09T01:37:24.667Z,98481.41
2023-05-09T01:40:18.178Z,98525.94
2023-05-09T01:43:08.930Z,98656.34
2023-05-09T01:45:55.333Z,98617.69
2023-05-09T01:48:42.525Z,98494.78
2023-05-09T01:51:29.760Z,98559.91
2023-05-09T01:54:17.145Z,98433.94
2023-05-09T01:57:03.884Z,98555.22
2023-05-09T01:59:50.657Z,98591.91
2023-05-09T02:02:37.967Z,98513.69
2023-05-09T02:05:27.918Z,98656.28
2023-05-09T02:08:15.033Z,98632.66
2023-05-09T02:11:00.469Z,98408.97
2023-05-09T02:13:46.308Z,98523.72
2023-05-09T02:16:32.740Z,98546.63
2023-05-09T02:19:18.136Z,98641.16
2023-05-09T02:22:03.780Z,98467.16
2023-05-09T02:24:50.004Z,98577.97
2023-05-09T02:27:36.932Z,98278.69
2023-05-09T02:30:24.886Z,98308.81
2023-05-09T02:33:12.497Z,98647.47
2023-05-09T02:35:58.206Z,98652.22
2023-05-09T02:38:44.973Z,98425.88
2023-05-09T02:41:30.405Z,98665.44
2023-05-09T02:44:16.121Z,98564.97
2023-05-09T02:47:03.090Z,98561.44
2023-05-09T02:49:48.388Z,98301.97
2023-05-09T02:52:34.760Z,98445.75
2023-05-09T02:55:20.209Z,98606.50
2023-05-09T02:58:13.556Z,98365.88
2023-05-09T03:01:00.608Z,98635.34
2023-05-09T03:03:46.101Z,98540.38
2023-05-09T03:06:31.824Z,98446.59
2023-05-09T03:09:17.607Z,98470.81
2023-05-09T03:12:02.989Z,98634.56
2023-05-09T03:14:48.582Z,98584.50
2023-05-09T03:17:34.520Z,98618.88
2023-05-09T03:20:20.282Z,98580.63
2023-05-09T03:23:05.745Z,98479.22
2023-05-09T03:25:51.265Z,98508.75
2023-05-09T03:28:38.528Z,98366.22
2023-05-09T03:31:25.642Z,98350.31
2023-05-09T03:34:10.843Z,98255.25
2023-05-09T03:36:57.216Z,98539.81
2023-05-09T03:39:43.270Z,98431.84
2023-05-09T03:42:28.595Z,98512.09
2023-05-09T03:45:17.889Z,98441.19
2023-05-09T03:48:05.426Z,98589.25
2023-05-09T03:50:50.611Z,98600.53
2023-05-09T03:53:36.318Z,98383.13
2023-05-09T03:56:21.933Z,98362.75
2023-05-09T03:59:09.733Z,98591.38
2023-05-09T04:01:55.424Z,98222.34
2023-05-09T04:04:43.903Z,98386.09
2023-05-09T04:07:30.022Z,98076.28
2023-05-09T04:10:15.485Z,98615.09
2023-05-09T04:13:01.260Z,98504.19
2023-05-09T04:15:47.357Z,98327.72
2023-05-09T04:18:33.021Z,98589.13
2023-05-09T04:21:19.076Z,98373.09
2023-05-09T04:24:07.764Z,98544.19
2023-05-09T04:27:04.945Z,98486.72
2023-05-09T04:29:50.465Z,98505.44
2023-05-09T04:32:36.068Z,98584.22
2023-05-09T04:35:22.500Z,98529.63
2023-05-09T04:38:10.517Z,98585.59
2023-05-09T04:40:56.329Z,98465.03
2023-05-09T04:43:44.408Z,98324.44
2023-05-09T04:46:29.895Z,98609.75
2023-05-09T04:49:15.925Z,98439.81
2023-05-09T04:52:01.048Z,98417.13
2023-05-09T04:54:46.674Z,98534.03
2023-05-09T04:57:34.544Z,98465.00
2023-05-09T05:00:22.049Z,98518.22
2023-05-09T05:03:07.843Z,98529.19
2023-05-09T05:05:53.696Z,98103.06
2023-05-09T05:08:39.517Z,98595.06
2023-05-09T05:11:24.903Z,98497.88
2023-05-09T05:14:10.790Z,98521.09
2023-05-09T05:16:56.258Z,98224.41
2023-05-09T05:19:42.389Z,98537.63
2023-05-09T05:22:27.787Z,98490.38
2023-05-09T05:25:13.533Z,98504.22
2023-05-09T05:28:00.652Z,98487.47
2023-05-09T05:30:46.062Z,98556.13
2023-05-09T05:33:31.626Z,98530.28
2023-05-09T05:36:17.624Z,98420.44
2023-05-09T05:39:03.345Z,98554.47
2023-05-09T05:41:48.952Z,98532.78
2023-05-09T05:44:35.107Z,98475.28
2023-05-09T05:47:20.689Z,98438.31
2023-05-09T05:50:07.103Z,98504.63
2023-05-09T05:52:54.324Z,98512.59
2023-05-09T05:55:41.800Z,98386.41
2023-05-09T05:58:27.476Z,98516.47
2023-05-09T06:01:15.445Z,98376.47
2023-05-09T06:04:00.753Z,98457.31
2023-05-09T06:06:49.146Z,98516.72
2023-05-09T06:09:35.169Z,98535.75
2023-05-09T06:12:20.554Z,98517.38
2023-05-09T06:15:06.898Z,98537.94
2023-05-09T06:17:56.235Z,98519.69
2023-05-09T06:20:41.673Z,98294.31
2023-05-09T06:23:27.652Z,98483.41
2023-05-09T06:26:13.427Z,98404.34
2023-05-09T06:28:59.172Z,98487.34
2023-05-09T06:31:44.522Z,98365.13
2023-05-09T06:34:30.340Z,98484.47
2023-05-09T06:37:15.646Z,98399.81
2023-05-09T06:40:01.366Z,98503.97
2023-05-09T06:42:47.140Z,98486.72
2023-05-09T06:45:33.424Z,98316.75
2023-05-09T06:48:19.307Z,98508.06
2023-05-09T06:51:04.606Z,98501.84
2023-05-09T06:53:50.099Z,98438.22
2023-05-09T06:56:36.576Z,98390.25
2023-05-09T06:59:22.028Z,98451.41
2023-05-09T07:02:07.516Z,98460.88
2023-05-09T07:04:53.009Z,98472.13
2023-05-09T07:07:38.360Z,98303.50
2023-05-09T07:10:23.890Z,98380.38
2023-05-09T07:13:09.523Z,98191.72
2023-05-09T07:15:54.992Z,98434.06
2023-05-09T07:18:40.179Z,98390.88
2023-05-09T07:21:25.316Z,98430.16
2023-05-09T07:24:10.604Z,98207.63
2023-05-09T07:26:55.684Z,98316.50
2023-05-09T07:29:41.420Z,98312.59
2023-05-09T07:32:26.931Z,98424.03
2023-05-09T07:35:12.663Z,98286.03
2023-05-09T07:37:57.943Z,98174.78
2023-05-09T07:40:43.136Z,98369.44
2023-05-09T07:43:28.622Z,98413.50
2023-05-09T07:46:13.860Z,98393.09
2023-05-09T07:48:59.365Z,98178.34
2023-05-09T07:51:45.097Z,98198.56
2023-05-09T07:54:30.072Z,98417.91
2023-05-09T07:57:15.652Z,98317.34
2023-05-09T08:00:00.812Z,98296.88
2023-05-09T08:02:46.177Z,98387.84
2023-05-09T08:05:31.876Z,98354.13
2023-05-09T08:08:17.457Z,98167.88
2023-05-09T08:11:02.948Z,98320.56
2023-05-09T08:13:48.479Z,98375.19
2023-05-09T08:16:33.596Z,98334.03
2023-05-09T08:19:19.117Z,98359.44
2023-05-09T08:22:04.599Z,98236.06
2023-05-09T08:24:50.345Z,98300.31
2023-05-09T08:27:35.515Z,98309.59
2023-05-09T08:30:21.122Z,98362.56
2023-05-09T08:33:06.561Z,98283.44
2023-05-09T08:35:53.441Z,98353.63
2023-05-09T08:38:38.642Z,98253.69
2023-05-09T08:41:27.329Z,98305.00
2023-05-09T08:44:13.236Z,98147.06
2023-05-09T08:47:00.967Z,98343.34
2023-05-09T08:49:46.212Z,98159.31
2023-05-09T08:52:32.969Z,98293.59
2023-05-09T08:55:18.981Z,98189.97
2023-05-09T08:58:04.766Z,98268.25
2023-05-09T09:00:50.553Z,98333.91
2023-05-09T09:03:37.576Z,98297.75
2023-05-09T09:06:23.424Z,98232.59
2023-05-09T09:09:09.184Z,98328.06
2023-05-09T09:11:54.511Z,98126.59
2023-05-09T09:14:46.397Z,98126.81
2023-05-09T09:17:33.312Z,98244.50
2023-05-09T09:20:23.394Z,98301.56
2023-05-09T09:23:09.800Z,98288.41
2023-05-09T09:26:04.408Z,98269.03
2023-05-09T09:28:49.520Z,98272.28
2023-05-09T09:31:34.878Z,98245.63
2023-05-09T09:34:22.557Z,98114.84
2023-05-09T09:37:07.775Z,98251.84
2023-05-09T09:39:56.836Z,98247.25
2023-05-09T09:42:47.560Z,98241.13
2023-05-09T09:45:32.718Z,98195.38
2023-05-09T09:48:18.106Z,98147.19
2023-05-09T09:51:12.177Z,98234.91
2023-05-09T09:53:57.831Z,97976.84
2023-05-09T09:56:45.182Z,98259.41
2023-05-09T09:59:30.752Z,98178.09
2023-05-09T10:02:16.185Z,98193.69
2023-05-09T10:05:07.867Z,98079.88
2023-05-09T10:07:59.624Z,98245.13
2023-05-09T10:10:45.084Z,98172.78
2023-05-09T10:13:30.835Z,98012.31
2023-05-09T10:16:16.250Z,98212.56
2023-05-09T10:19:02.152Z,98234.03
2023-05-09T10:21:50.653Z,98227.59
2023-05-09T10:24:51.237Z,98223.03
2023-05-09T10:27:38.288Z,98052.88
2023-05-09T10:30:31.505Z,98013.91
2023-05-09T10:33:24.348Z,98044.19
2023-05-09T10:36:10.553Z,98200.63
2023-05-09T10:38:56.120Z,98020.09
2023-05-09T10:41:41.864Z,98067.34
2023-05-09T10:44:27.770Z,98168.63
2023-05-09T10:47:13.984Z,97985.16
2023-05-09T10:49:59.750Z,97950.78
2023-05-09T10:53:04.505Z,98163.09
2023-05-09T10:56:00.973Z,98151.19
2023-05-09T10:58:47.935Z,98126.44
2023-05-09T11:01:36.152Z,97986.75
2023-05-09T11:04:23.934Z,98126.19
2023-05-09T11:07:27.046Z,98144.53
2023-05-09T11:10:17.847Z,98128.69
2023-05-09T11:13:03.152Z,97982.16
2023-05-09T11:16:04.665Z,97999.59
2023-05-09T11:18:52.475Z,97924.28
2023-05-09T11:21:39.890Z,97487.91
2023-05-09T11:24:25.375Z,98052.81
2023-05-09T11:27:20.566Z,98094.97
2023-05-09T11:30:07.572Z,98095.69
2023-05-09T11:32:54.869Z,97988.22
2023-05-09T11:35:44.135Z,97828.19
2023-05-09T11:38:41.374Z,97906.69
2023-05-09T11:41:27.592Z,97910.34
2023-05-09T11:44:21.005Z,97972.75
2023-05-09T11:47:06.519Z,97919.16
2023-05-09T11:49:53.237Z,98017.34
2023-05-09T11:52:40.131Z,98059.81
2023-05-09T11:55:25.844Z,97965.25
2023-05-09T11:58:12.057Z,97997.78
2023-05-09T12:00:57.660Z,97936.03
2023-05-09T12:03:46.554Z,97974.22
2023-05-09T12:06:32.350Z,97977.53
2023-05-09T12:09:19.634Z,97868.53
2023-05-09T12:12:12.642Z,98023.63
2023-05-09T12:15:02.453Z,97704.38
2023-05-09T12:17:50.358Z,97839.63
2023-05-09T12:20:41.419Z,97905.19
2023-05-09T12:23:26.680Z,97920.66
2023-05-09T12:26:12.478Z,97862.13
2023-05-09T12:28:58.138Z,97854.97
2023-05-09T12:31:44.158Z,97852.94
2023-05-09T12:34:29.391Z,97870.47
2023-05-09T12:37:16.543Z,97854.78
2023-05-09T12:40:08.546Z,97960.75
2023-05-09T12:42:53.965Z,97908.50
2023-05-09T12:45:39.069Z,97901.13
2023-05-09T12:48:25.665Z,97655.16
2023-05-09T12:51:11.121Z,97874.72
2023-05-09T12:54:02.883Z,97922.97
2023-05-09T12:56:48.173Z,97911.84
2023-05-09T12:59:33.724Z,97907.44
2023-05-09T13:02:19.129Z,97916.25
2023-05-09T13:05:08.605Z,97841.69
2023-05-09T13:07:56.954Z,97771.09
2023-05-09T13:10:42.510Z,97870.56
2023-05-09T13:13:28.669Z,97786.94
2023-05-09T13:16:15.893Z,97955.19
2023-05-09T13:19:03.197Z,97960.75
2023-05-09T13:21:48.780Z,97697.53
2023-05-09T13:24:33.993Z,97843.81
2023-05-09T13:27:19.288Z,97694.66
2023-05-09T13:30:06.008Z,97925.28
2023-05-09T13:32:51.267Z,97832.84
2023-05-09T13:35:36.506Z,97822.06
2023-05-09T13:38:22.444Z,97851.63
2023-05-09T13:41:07.839Z,97919.91
2023-05-09T13:43:53.324Z,97813.03
2023-05-09T13:46:38.854Z,97758.97
2023-05-09T13:49:24.703Z,97843.56
2023-05-09T13:52:09.967Z,97746.91
2023-05-09T13:54:55.273Z,97806.19
2023-05-09T13:57:40.348Z,97841.03
2023-05-09T14:00:25.714Z,97731.63
2023-05-09T14:03:11.037Z,97637.84
2023-05-09T14:05:56.408Z,97332.03
2023-05-09T14:08:41.798Z,97709.22
2023-05-09T14:11:27.060Z,97712.38
2023-05-09T14:14:11.934Z,97642.34
2023-05-09T14:16:57.192Z,97764.81
2023-05-09T14:19:42.580Z,97716.28
2023-05-09T14:22:28.308Z,97856.34
2023-05-09T14:25:13.987Z,97776.41
2023-05-09T14:27:59.277Z,97736.31
2023-05-09T14:30:44.480Z,97702.22
2023-05-09T14:33:29.716Z,97730.03
2023-05-09T14:36:15.181Z,97752.63
2023-05-09T14:39:00.670Z,97672.50
2023-05-09T14:41:46.142Z,97715.66
2023-05-09T14:44:31.987Z,97732.34
2023-05-09T14:47:17.186Z,97619.59
2023-05-09T14:50:02.445Z,97617.78
2023-05-09T14:52:49.108Z,97699.75
2023-05-09T14:55:34.590Z,97644.09
2023-05-09T14:58:21.556Z,97530.66
2023-05-09T15:01:07.244Z,97694.09
2023-05-09T15:03:52.672Z,97725.28
2023-05-09T15:06:38.208Z,97674.38
2023-05-09T15:09:23.563Z,97622.94
2023-05-09T15:12:08.849Z,97656.97
2023-05-09T15:14:53.953Z,97541.50
2023-05-09T15:17:39.300Z,97630.38
2023-05-09T15:20:24.825Z,97698.13
2023-05-09T15:23:12.091Z,97507.16
2023-05-09T15:25:57.450Z,97583.25
2023-05-09T15:28:43.176Z,97582.72
2023-05-09T15:31:32.942Z,97749.97
2023-05-09T15:34:18.557Z,97650.81
2023-05-09T15:37:04.002Z,97652.44
2023-05-09T15:39:49.931Z,97519.25
2023-05-09T15:42:36.069Z,97656.19
2023-05-09T15:45:21.231Z,97633.38
2023-05-09T15:48:06.539Z,97640.31
2023-05-09T15:50:53.202Z,97766.63
2023-05-09T15:53:38.642Z,97628.28
2023-05-09T15:56:24.302Z,97581.91
2023-05-09T15:59:09.729Z,97545.25
2023-05-09T16:01:55.822Z,97526.75
2023-05-09T16:04:41.427Z,97716.22
2023-05-09T16:07:26.863Z,97720.22
2023-05-09T16:10:13.587Z,97643.59
2023-05-09T16:12:59.069Z,97685.41
2023-05-09T16:15:44.645Z,97686.97
2023-05-09T16:18:30.202Z,97598.84
2023-05-09T16:21:16.993Z,97700.94
2023-05-09T16:24:02.712Z,97695.59
2023-05-09T16:26:48.353Z,97227.81
2023-05-09T16:29:34.032Z,97597.97
2023-05-09T16:32:19.300Z,97637.91
2023-05-09T16:35:05.840Z,97577.59
2023-05-09T16:37:51.060Z,97362.69
2023-05-09T16:40:36.889Z,97676.97
2023-05-09T16:43:22.424Z,97671.59
2023-05-09T16:46:08.700Z,97685.88
2023-05-09T16:48:55.228Z,97666.59
2023-05-09T16:51:41.860Z,97585.94
2023-05-09T16:54:27.162Z,96778.38
2023-05-09T16:57:13.326Z,97080.66
2023-05-09T17:00:00.503Z,97661.53
2023-05-09T17:02:45.907Z,97588.91
2023-05-09T17:05:31.925Z,97017.97
2023-05-09T17:08:17.550Z,97633.66
2023-05-09T17:11:02.903Z,97571.16
2023-05-09T17:13:48.363Z,97486.44
2023-05-09T17:16:35.298Z,97551.59
2023-05-09T17:19:23.289Z,97576.53
2023-05-09T17:22:09.233Z,97592.88
2023-05-09T17:24:54.908Z,97035.38
2023-05-09T17:27:40.295Z,97505.53
2023-05-09T17:30:27.352Z,97495.94
2023-05-09T17:33:15.717Z,97430.03
2023-05-09T17:36:01.114Z,97621.28
2023-05-09T17:38:46.430Z,97604.19
2023-05-09T17:41:31.984Z,97364.47
2023-05-09T17:44:17.936Z,97509.88
2023-05-09T17:47:03.640Z,97602.56
2023-05-09T17:49:48.800Z,97592.34
2023-05-09T17:52:34.570Z,97626.69
2023-05-09T17:55:20.388Z,97319.34
2023-05-09T17:58:06.054Z,97545.75
2023-05-09T18:00:54.216Z,97509.56
2023-05-09T18:03:39.617Z,97590.72
2023-05-09T18:06:25.220Z,97615.13
2023-05-09T18:09:11.151Z,97505.47
2023-05-09T18:11:56.592Z,97208.38
2023-05-09T18:14:42.289Z,97583.72
2023-05-09T18:17:27.496Z,97550.91
2023-05-09T18:20:13.230Z,97533.38
2023-05-09T18:22:58.725Z,97109.47
2023-05-09T18:25:43.924Z,97528.25
2023-05-09T18:28:29.684Z,97252.88
2023-05-09T18:31:15.577Z,97418.09
2023-05-09T18:34:01.468Z,97440.13
2023-05-09T18:36:47.603Z,97246.28
2023-05-09T18:39:32.954Z,97235.69
2023-05-09T18:42:18.929Z,97199.75
2023-05-09T18:45:05.311Z,97144.03
2023-05-09T18:47:50.842Z,97266.47
2023-05-09T18:50:36.335Z,96986.25
2023-05-09T18:53:22.143Z,97592.06
2023-05-09T18:56:07.525Z,97589.34
2023-05-09T18:58:53.228Z,97430.91
2023-05-09T19:01:38.241Z,97504.44
2023-05-09T19:04:24.613Z,97608.69
2023-05-09T19:07:10.458Z,97543.19
2023-05-09T19:09:56.221Z,97181.47
2023-05-09T19:12:42.111Z,97434.13
2023-05-09T19:15:27.865Z,97570.63
2023-05-09T19:18:13.610Z,97502.00
2023-05-09T19:21:00.051Z,97612.38
2023-05-09T19:23:45.601Z,97533.00
2023-05-09T19:29:19.153Z,97615.25
2023-05-09T19:32:04.883Z,97293.94
2023-05-09T19:34:50.540Z,97079.69
2023-05-09T19:37:36.891Z,97526.00
2023-05-09T19:40:23.087Z,97481.47
2023-05-09T19:43:08.785Z,97491.81
2023-05-09T19:45:54.763Z,97557.22
2023-05-09T19:48:40.620Z,97599.41
2023-05-09T19:51:25.821Z,97600.78
2023-05-09T19:54:11.570Z,97574.81
2023-05-09T19:56:56.940Z,97496.50
2023-05-09T19:59:42.247Z,97580.94
2023-05-09T20:02:28.109Z,97454.72
2023-05-09T20:05:13.358Z,97610.44
2023-05-09T20:07:58.899Z,97499.31
2023-05-09T20:10:44.027Z,97602.47
2023-05-09T20:13:29.482Z,97602.56
2023-05-09T20:16:15.174Z,97446.00
2023-05-09T20:19:00.784Z,97601.28
2023-05-09T20:21:46.141Z,97335.28
2023-05-09T20:24:31.726Z,97600.06
2023-05-09T20:27:17.287Z,97498.06
2023-05-09T20:30:05.821Z,97412.34
2023-05-09T20:32:51.234Z,97590.69
2023-05-09T20:35:36.388Z,97516.31
2023-05-09T20:38:21.746Z,97565.91
2023-05-09T20:41:07.409Z,97570.75
2023-05-09T20:43:52.989Z,97304.91
2023-05-09T20:46:38.480Z,97591.53
2023-05-09T20:49:23.984Z,97560.88
2023-05-09T20:52:09.955Z,97440.25
2023-05-09T20:54:55.217Z,97513.78
2023-05-09T20:57:40.542Z,97422.88
2023-05-09T21:00:25.869Z,97570.69
2023-05-09T21:03:11.467Z,97568.13
2023-05-09T21:05:58.194Z,97418.69
2023-05-09T21:08:43.500Z,97331.66
2023-05-09T21:11:28.889Z,97347.56
2023-05-09T21:14:14.164Z,97505.19
2023-05-09T21:16:59.689Z,97574.53
2023-05-09T21:19:45.193Z,97491.34
2023-05-09T21:22:30.483Z,97413.69
2023-05-09T21:25:16.009Z,97419.72
2023-05-09T21:28:01.711Z,97533.44
2023-05-09T21:30:53.729Z,97542.44
2023-05-09T21:33:39.328Z,97540.97
2023-05-09T21:36:25.315Z,97561.84
2023-05-09T21:39:10.896Z,97529.53
2023-05-09T21:41:56.826Z,97553.06
2023-05-09T21:44:42.121Z,97555.38
2023-05-09T21:47:27.526Z,97541.06
2023-05-09T21:50:13.035Z,97557.56
2023-05-09T21:52:59.976Z,97405.91
2023-05-09T21:55:45.242Z,97363.69
2023-05-09T21:58:30.320Z,97503.38
2023-05-09T22:01:17.968Z,97465.16
2023-05-09T22:04:04.913Z,97344.66
2023-05-09T22:06:50.314Z,97548.13
2023-05-09T22:09:35.882Z,97302.06
2023-05-09T22:12:21.494Z,97518.94
2023-05-09T22:15:07.535Z,97432.03
2023-05-09T22:17:52.963Z,97470.94
2023-05-09T22:20:38.781Z,97485.34
2023-05-09T22:23:24.443Z,97377.34
2023-05-09T22:26:09.710Z,97537.22
2023-05-09T22:28:55.287Z,97504.34
2023-05-09T22:31:41.174Z,97513.56
2023-05-09T22:34:26.506Z,97301.16
2023-05-09T22:37:11.954Z,97475.03
2023-05-09T22:39:57.096Z,97431.38
2023-05-09T22:42:42.722Z,97333.19
2023-05-09T22:45:53.959Z,97484.44
2023-05-09T22:48:39.490Z,97472.28
2023-05-09T22:51:25.193Z,97482.81
2023-05-09T22:54:10.866Z,97484.31
2023-05-09T22:56:56.225Z,97518.28
2023-05-09T22:59:41.850Z,97308.78
2023-05-09T23:02:27.102Z,97342.09
2023-05-09T23:05:12.543Z,97398.63
2023-05-09T23:07:57.899Z,97536.59
2023-05-09T23:10:44.017Z,97516.66
2023-05-09T23:13:29.585Z,97515.28
2023-05-09T23:16:15.224Z,97444.25
2023-05-09T23:19:00.885Z,97528.84
2023-05-09T23:21:46.162Z,97292.84
2023-05-09T23:24:31.614Z,97479.97
2023-05-09T23:27:16.844Z,97500.47
2023-05-09T23:30:02.267Z,97463.44
2023-05-09T23:32:47.543Z,97527.66
2023-05-09T23:35:32.724Z,97288.94
2023-05-09T23:38:18.145Z,97489.56
2023-05-09T23:41:03.593Z,97527.19
2023-05-09T23:43:49.674Z,97317.66
2023-05-09T23:46:35.142Z,97479.13
2023-05-09T23:49:20.617Z,97327.97
2023-05-09T23:52:05.817Z,97384.88
2023-05-09T23:54:50.905Z,97288.75
2023-05-09T23:57:36.212Z,97333.41
